TimeEDT,TemperatureF,Dew PointF,Humidity,Sea Level PressureIn,VisibilityMPH,Wind Direction,Wind SpeedMPH,Gust SpeedMPH,PrecipitationIn,Events,Conditions,WindDirDegrees,DateUTC
12:15 AM,51.8,28.4,41,29.79,10.0,WNW,9.2,18.4,N/A,,Overcast,290,2012-10-20 04:15:00
12:35 AM,51.8,28.4,41,29.79,10.0,West,9.2,-,N/A,,Overcast,280,2012-10-20 04:35:00
12:55 AM,51.8,28.4,41,29.80,10.0,WSW,4.6,-,N/A,,Overcast,250,2012-10-20 04:55:00
1:15 AM,50.0,30.2,47,29.80,10.0,Calm,Calm,-,N/A,,Overcast,0,2012-10-20 05:15:00
1:35 AM,50.0,30.2,47,29.79,10.0,SW,3.5,-,N/A,,Overcast,230,2012-10-20 05:35:00
1:55 AM,51.8,30.2,44,29.79,10.0,WSW,3.5,-,N/A,,Overcast,240,2012-10-20 05:55:00
2:15 AM,50.0,30.2,47,29.79,10.0,Calm,Calm,-,N/A,,Overcast,0,2012-10-20 06:15:00
2:35 AM,50.0,30.2,47,29.79,10.0,WNW,5.8,-,N/A,,Overcast,300,2012-10-20 06:35:00
2:55 AM,50.0,30.2,47,29.79,10.0,WNW,3.5,-,N/A,,Mostly Cloudy,290,2012-10-20 06:55:00
3:15 AM,50.0,30.2,47,29.79,10.0,NNW,4.6,-,N/A,,Scattered Clouds,340,2012-10-20 07:15:00
3:35 AM,50.0,32.0,50,29.79,10.0,WNW,6.9,-,N/A,,Clear,290,2012-10-20 07:35:00
3:55 AM,50.0,32.0,50,29.79,10.0,NNW,8.1,-,N/A,,Clear,340,2012-10-20 07:55:00
4:15 AM,48.2,32.0,54,29.79,10.0,North,5.8,-,N/A,,Scattered Clouds,350,2012-10-20 08:15:00
4:35 AM,46.4,32.0,57,29.79,10.0,North,5.8,-,N/A,,Scattered Clouds,350,2012-10-20 08:35:00
4:55 AM,46.4,32.0,57,29.79,10.0,NNW,3.5,-,N/A,,Scattered Clouds,340,2012-10-20 08:55:00
5:15 AM,46.4,32.0,57,29.79,10.0,NW,8.1,-,N/A,,Scattered Clouds,320,2012-10-20 09:15:00
5:35 AM,46.4,32.0,57,29.80,10.0,NNW,5.8,-,N/A,,Mostly Cloudy,330,2012-10-20 09:35:00
5:55 AM,46.4,32.0,57,29.80,10.0,West,5.8,16.1,N/A,,Mostly Cloudy,280,2012-10-20 09:55:00
6:15 AM,46.4,32.0,57,29.80,10.0,Calm,Calm,-,N/A,,Mostly Cloudy,0,2012-10-20 10:15:00
6:35 AM,46.4,32.0,57,29.80,10.0,WNW,8.1,-,N/A,,Overcast,300,2012-10-20 10:35:00
6:55 AM,44.6,32.0,61,29.81,10.0,West,11.5,19.6,N/A,,Overcast,280,2012-10-20 10:55:00
7:15 AM,44.6,33.8,66,29.82,10.0,NW,8.1,17.3,N/A,,Overcast,320,2012-10-20 11:15:00
7:35 AM,44.6,33.8,66,29.82,10.0,NW,6.9,17.3,N/A,,Scattered Clouds,310,2012-10-20 11:35:00
7:55 AM,44.6,33.8,66,29.82,10.0,WNW,13.8,18.4,N/A,,Scattered Clouds,300,2012-10-20 11:55:00
8:15 AM,44.6,33.8,66,29.83,10.0,NW,9.2,-,N/A,,Scattered Clouds,320,2012-10-20 12:15:00
8:35 AM,44.6,33.8,66,29.84,10.0,SW,5.8,-,N/A,,Mostly Cloudy,230,2012-10-20 12:35:00
8:55 AM,44.6,32.0,61,29.84,10.0,West,5.8,-,N/A,,Scattered Clouds,270,2012-10-20 12:55:00
9:15 AM,44.6,33.8,66,29.84,10.0,West,13.8,20.7,N/A,,Clear,280,2012-10-20 13:15:00
9:35 AM,44.6,33.8,66,29.84,10.0,WNW,13.8,23.0,N/A,,Scattered Clouds,290,2012-10-20 13:35:00
9:55 AM,46.4,32.0,57,29.84,10.0,WNW,6.9,24.2,N/A,,Clear,300,2012-10-20 13:55:00
10:15 AM,46.4,33.8,62,29.86,10.0,West,16.1,24.2,N/A,,Scattered Clouds,270,2012-10-20 14:15:00
10:35 AM,48.2,33.8,58,29.86,10.0,West,15.0,28.8,N/A,,Overcast,280,2012-10-20 14:35:00
10:55 AM,46.4,33.8,62,29.88,10.0,West,12.7,19.6,N/A,,Overcast,280,2012-10-20 14:55:00
11:15 AM,50.0,33.8,54,29.88,10.0,WNW,13.8,18.4,N/A,,Overcast,300,2012-10-20 15:15:00
11:35 AM,50.0,33.8,54,29.88,10.0,WNW,13.8,23.0,N/A,,Overcast,290,2012-10-20 15:35:00
11:55 AM,50.0,32.0,50,29.88,10.0,NW,9.2,-,N/A,,Overcast,310,2012-10-20 15:55:00
12:15 PM,50.0,32.0,50,29.88,10.0,WNW,15.0,24.2,N/A,,Mostly Cloudy,300,2012-10-20 16:15:00
12:35 PM,50.0,32.0,50,29.88,10.0,WNW,10.4,16.1,N/A,,Overcast,300,2012-10-20 16:35:00
12:55 PM,50.0,32.0,50,29.88,10.0,WNW,10.4,18.4,N/A,,Mostly Cloudy,290,2012-10-20 16:55:00
1:15 PM,51.8,32.0,47,29.88,10.0,WNW,9.2,20.7,N/A,,Mostly Cloudy,300,2012-10-20 17:15:00
1:35 PM,51.8,33.8,50,29.88,10.0,West,11.5,18.4,N/A,,Mostly Cloudy,280,2012-10-20 17:35:00
1:55 PM,50.0,33.8,54,29.88,10.0,WNW,15.0,-,N/A,,Overcast,290,2012-10-20 17:55:00
2:15 PM,50.0,33.8,54,29.87,10.0,West,15.0,20.7,N/A,,Mostly Cloudy,280,2012-10-20 18:15:00
2:35 PM,51.8,33.8,50,29.88,10.0,WNW,11.5,20.7,N/A,,Mostly Cloudy,300,2012-10-20 18:35:00
2:55 PM,50.0,32.0,50,29.88,10.0,WNW,15.0,24.2,N/A,,Mostly Cloudy,300,2012-10-20 18:55:00
3:15 PM,50.0,33.8,54,29.88,10.0,WNW,12.7,18.4,N/A,,Mostly Cloudy,300,2012-10-20 19:15:00
3:35 PM,50.0,32.0,50,29.87,10.0,NNW,15.0,19.6,N/A,,Scattered Clouds,330,2012-10-20 19:35:00
3:55 PM,50.0,32.0,50,29.88,10.0,WNW,12.7,24.2,N/A,,Scattered Clouds,300,2012-10-20 19:55:00
4:15 PM,50.0,32.0,50,29.88,10.0,NW,8.1,18.4,N/A,,Scattered Clouds,320,2012-10-20 20:15:00
4:35 PM,50.0,32.0,50,29.89,10.0,West,15.0,21.9,N/A,,Scattered Clouds,280,2012-10-20 20:35:00
5:15 PM,50.0,32.0,50,29.90,10.0,West,9.2,18.4,N/A,,Scattered Clouds,280,2012-10-20 21:15:00
5:35 PM,50.0,32.0,50,29.90,10.0,WNW,9.2,16.1,N/A,,Mostly Cloudy,290,2012-10-20 21:35:00
6:15 PM,48.2,32.0,54,29.91,10.0,NNW,13.8,19.6,N/A,,Scattered Clouds,330,2012-10-20 22:15:00
6:35 PM,48.2,32.0,54,29.92,10.0,WNW,6.9,10.4,N/A,,Clear,300,2012-10-20 22:35:00
6:55 PM,48.2,32.0,54,29.92,10.0,North,8.1,16.1,N/A,,Clear,350,2012-10-20 22:55:00
7:15 PM,46.4,32.0,57,29.93,10.0,NW,6.9,-,N/A,,Clear,320,2012-10-20 23:15:00
7:35 PM,46.4,32.0,57,29.94,10.0,NNW,9.2,-,N/A,,Scattered Clouds,340,2012-10-20 23:35:00
7:55 PM,46.4,33.8,62,29.94,10.0,NW,3.5,-,N/A,,Mostly Cloudy,320,2012-10-20 23:55:00
8:15 PM,46.4,33.8,62,29.95,10.0,NW,3.5,-,N/A,,Scattered Clouds,310,2012-10-21 00:15:00
9:15 PM,46.4,33.8,62,29.96,10.0,NW,11.5,17.3,N/A,,Clear,310,2012-10-21 01:15:00
9:35 PM,44.6,33.8,66,29.96,10.0,NW,10.4,-,N/A,,Clear,320,2012-10-21 01:35:00
9:55 PM,44.6,33.8,66,29.96,10.0,WNW,10.4,-,N/A,,Clear,300,2012-10-21 01:55:00
10:15 PM,44.6,33.8,66,29.97,10.0,NW,6.9,-,N/A,,Clear,310,2012-10-21 02:15:00
10:35 PM,44.6,33.8,66,29.98,10.0,NNW,5.8,-,N/A,,Clear,330,2012-10-21 02:35:00
10:55 PM,42.8,33.8,70,29.98,10.0,NNW,5.8,-,N/A,,Clear,330,2012-10-21 02:55:00
11:15 PM,44.6,33.8,66,29.98,10.0,NNW,3.5,-,N/A,,Clear,340,2012-10-21 03:15:00
11:35 PM,42.8,33.8,70,29.99,10.0,West,4.6,-,N/A,,Clear,280,2012-10-21 03:35:00
11:55 PM,42.8,33.8,70,29.99,10.0,Calm,Calm,-,N/A,,Clear,0,2012-10-21 03:55:00